sensor_id;sensor_type;location;lat;lon;timestamp;temperature;humidity
25914;DHT22;13718;50.922;5.346;2022-12-19T00:01:16;4.60;99.90
25914;DHT22;13718;50.922;5.346;2022-12-19T00:03:47;4.50;99.90
25914;DHT22;13718;50.922;5.346;2022-12-19T00:06:14;4.60;99.90
25914;DHT22;13718;50.922;5.346;2022-12-19T00:08:41;4.60;99.90
25914;DHT22;13718;50.922;5.346;2022-12-19T00:11:08;4.80;99.90
25914;DHT22;13718;50.922;5.346;2022-12-19T00:13:34;4.90;99.90
25914;DHT22;13718;50.922;5.346;2022-12-19T00:16:02;4.90;99.90
25914;DHT22;13718;50.922;5.346;2022-12-19T00:18:28;4.80;99.90
25914;DHT22;13718;50.922;5.346;2022-12-19T00:20:59;4.80;99.90
25914;DHT22;13718;50.922;5.346;2022-12-19T00:23:26;4.90;99.90
25914;DHT22;13718;50.922;5.346;2022-12-19T00:25:52;4.90;99.90
25914;DHT22;13718;50.922;5.346;2022-12-19T00:28:18;5.00;99.90
25914;DHT22;13718;50.922;5.346;2022-12-19T00:30:43;5.00;99.90
25914;DHT22;13718;50.922;5.346;2022-12-19T00:33:09;4.90;99.90
25914;DHT22;13718;50.922;5.346;2022-12-19T00:35:34;5.00;99.90
25914;DHT22;13718;50.922;5.346;2022-12-19T00:38:00;5.00;99.90
25914;DHT22;13718;50.922;5.346;2022-12-19T00:40:27;5.00;99.90
25914;DHT22;13718;50.922;5.346;2022-12-19T00:42:52;5.00;99.90
25914;DHT22;13718;50.922;5.346;2022-12-19T00:45:18;5.00;99.90
25914;DHT22;13718;50.922;5.346;2022-12-19T00:47:44;5.00;99.90
25914;DHT22;13718;50.922;5.346;2022-12-19T00:50:09;5.10;99.90
25914;DHT22;13718;50.922;5.346;2022-12-19T00:52:35;5.20;99.90
25914;DHT22;13718;50.922;5.346;2022-12-19T00:55:01;5.30;99.90
25914;DHT22;13718;50.922;5.346;2022-12-19T00:57:26;5.20;99.90
25914;DHT22;13718;50.922;5.346;2022-12-19T00:59:52;5.20;99.90
25914;DHT22;13718;50.922;5.346;2022-12-19T01:02:17;5.30;99.90
25914;DHT22;13718;50.922;5.346;2022-12-19T01:04:43;5.30;99.90
25914;DHT22;13718;50.922;5.346;2022-12-19T01:07:09;5.30;99.90
25914;DHT22;13718;50.922;5.346;2022-12-19T01:09:35;5.40;99.90
25914;DHT22;13718;50.922;5.346;2022-12-19T01:12:02;5.40;99.90
25914;DHT22;13718;50.922;5.346;2022-12-19T01:14:46;5.40;99.90
25914;DHT22;13718;50.922;5.346;2022-12-19T01:17:12;5.50;99.90
25914;DHT22;13718;50.922;5.346;2022-12-19T01:19:38;5.60;99.90
25914;DHT22;13718;50.922;5.346;2022-12-19T01:22:03;5.50;99.90
25914;DHT22;13718;50.922;5.346;2022-12-19T01:24:29;5.50;99.90
25914;DHT22;13718;50.922;5.346;2022-12-19T01:26:55;5.60;99.90
25914;DHT22;13718;50.922;5.346;2022-12-19T01:29:20;5.70;99.90
25914;DHT22;13718;50.922;5.346;2022-12-19T01:31:46;5.70;99.90
25914;DHT22;13718;50.922;5.346;2022-12-19T01:34:11;5.60;99.90
25914;DHT22;13718;50.922;5.346;2022-12-19T01:36:38;5.70;99.90
25914;DHT22;13718;50.922;5.346;2022-12-19T01:39:03;5.80;99.90
25914;DHT22;13718;50.922;5.346;2022-12-19T01:41:29;5.80;99.90
25914;DHT22;13718;50.922;5.346;2022-12-19T01:46:32;5.90;99.90
25914;DHT22;13718;50.922;5.346;2022-12-19T01:49:00;5.90;99.90
25914;DHT22;13718;50.922;5.346;2022-12-19T01:51:33;5.80;99.90
25914;DHT22;13718;50.922;5.346;2022-12-19T01:54:04;5.70;99.90
25914;DHT22;13718;50.922;5.346;2022-12-19T01:56:33;5.80;99.90
25914;DHT22;13718;50.922;5.346;2022-12-19T01:59:05;5.90;99.90
25914;DHT22;13718;50.922;5.346;2022-12-19T02:01:33;6.00;99.90
25914;DHT22;13718;50.922;5.346;2022-12-19T02:03:59;6.10;99.90
25914;DHT22;13718;50.922;5.346;2022-12-19T02:06:26;6.10;99.90
25914;DHT22;13718;50.922;5.346;2022-12-19T02:08:53;6.10;99.90
25914;DHT22;13718;50.922;5.346;2022-12-19T02:11:20;6.00;99.90
25914;DHT22;13718;50.922;5.346;2022-12-19T02:13:45;6.00;99.90
25914;DHT22;13718;50.922;5.346;2022-12-19T02:22:44;6.20;99.90
25914;DHT22;13718;50.922;5.346;2022-12-19T02:28:52;6.20;99.90
25914;DHT22;13718;50.922;5.346;2022-12-19T02:31:27;6.30;99.90
25914;DHT22;13718;50.922;5.346;2022-12-19T02:34:17;6.40;99.90
25914;DHT22;13718;50.922;5.346;2022-12-19T02:36:50;6.50;99.90
25914;DHT22;13718;50.922;5.346;2022-12-19T02:39:25;6.60;99.90
25914;DHT22;13718;50.922;5.346;2022-12-19T02:41:55;6.60;99.90
25914;DHT22;13718;50.922;5.346;2022-12-19T02:44:30;6.60;99.90
25914;DHT22;13718;50.922;5.346;2022-12-19T02:46:58;6.60;99.90
25914;DHT22;13718;50.922;5.346;2022-12-19T02:49:24;6.50;99.90
25914;DHT22;13718;50.922;5.346;2022-12-19T02:51:52;6.60;99.90
25914;DHT22;13718;50.922;5.346;2022-12-19T02:54:18;6.70;99.90
25914;DHT22;13718;50.922;5.346;2022-12-19T02:56:52;6.70;99.90
25914;DHT22;13718;50.922;5.346;2022-12-19T03:05:13;6.90;99.90
25914;DHT22;13718;50.922;5.346;2022-12-19T03:07:57;7.00;99.90
25914;DHT22;13718;50.922;5.346;2022-12-19T03:10:59;7.00;99.90
25914;DHT22;13718;50.922;5.346;2022-12-19T03:13:31;7.00;99.90
25914;DHT22;13718;50.922;5.346;2022-12-19T03:15:59;7.10;99.90
25914;DHT22;13718;50.922;5.346;2022-12-19T03:18:25;7.00;99.90
25914;DHT22;13718;50.922;5.346;2022-12-19T03:20:54;7.10;99.90
25914;DHT22;13718;50.922;5.346;2022-12-19T03:23:24;7.20;99.90
25914;DHT22;13718;50.922;5.346;2022-12-19T03:25:51;7.10;99.90
25914;DHT22;13718;50.922;5.346;2022-12-19T03:28:34;7.10;99.90
25914;DHT22;13718;50.922;5.346;2022-12-19T03:31:02;7.20;99.90
25914;DHT22;13718;50.922;5.346;2022-12-19T03:33:30;7.30;99.90
25914;DHT22;13718;50.922;5.346;2022-12-19T03:35:59;7.20;99.90
25914;DHT22;13718;50.922;5.346;2022-12-19T03:38:26;7.30;99.90
25914;DHT22;13718;50.922;5.346;2022-12-19T03:40:53;7.30;99.90
25914;DHT22;13718;50.922;5.346;2022-12-19T03:43:20;7.30;99.90
25914;DHT22;13718;50.922;5.346;2022-12-19T03:45:49;7.40;99.90
25914;DHT22;13718;50.922;5.346;2022-12-19T03:58:42;7.50;99.90
25914;DHT22;13718;50.922;5.346;2022-12-19T04:01:10;7.50;99.90
25914;DHT22;13718;50.922;5.346;2022-12-19T04:03:35;7.60;99.90
25914;DHT22;13718;50.922;5.346;2022-12-19T04:06:02;7.60;99.90
25914;DHT22;13718;50.922;5.346;2022-12-19T04:08:29;7.70;99.90
25914;DHT22;13718;50.922;5.346;2022-12-19T04:11:04;7.70;99.90
25914;DHT22;13718;50.922;5.346;2022-12-19T04:14:01;7.70;99.90
25914;DHT22;13718;50.922;5.346;2022-12-19T04:19:18;7.90;99.90
25914;DHT22;13718;50.922;5.346;2022-12-19T04:21:52;7.90;99.90
25914;DHT22;13718;50.922;5.346;2022-12-19T04:24:25;7.90;99.90
25914;DHT22;13718;50.922;5.346;2022-12-19T04:26:53;7.80;99.90
25914;DHT22;13718;50.922;5.346;2022-12-19T04:29:20;7.90;99.90
25914;DHT22;13718;50.922;5.346;2022-12-19T04:31:48;7.90;99.90
25914;DHT22;13718;50.922;5.346;2022-12-19T04:34:17;8.00;99.90
25914;DHT22;13718;50.922;5.346;2022-12-19T04:36:43;7.90;99.90
25914;DHT22;13718;50.922;5.346;2022-12-19T04:39:09;7.90;99.90
25914;DHT22;13718;50.922;5.346;2022-12-19T04:41:35;7.90;99.90
25914;DHT22;13718;50.922;5.346;2022-12-19T04:44:00;7.90;99.90
25914;DHT22;13718;50.922;5.346;2022-12-19T04:46:26;8.00;99.90
25914;DHT22;13718;50.922;5.346;2022-12-19T04:48:51;8.10;99.90
25914;DHT22;13718;50.922;5.346;2022-12-19T04:51:17;8.00;99.90
25914;DHT22;13718;50.922;5.346;2022-12-19T04:53:43;8.10;99.90
25914;DHT22;13718;50.922;5.346;2022-12-19T04:56:08;8.10;99.90
25914;DHT22;13718;50.922;5.346;2022-12-19T04:58:34;8.20;99.90
25914;DHT22;13718;50.922;5.346;2022-12-19T05:01:04;8.20;99.90
25914;DHT22;13718;50.922;5.346;2022-12-19T05:03:31;8.20;99.90
25914;DHT22;13718;50.922;5.346;2022-12-19T05:06:08;8.20;99.90
25914;DHT22;13718;50.922;5.346;2022-12-19T05:08:35;8.30;99.90
25914;DHT22;13718;50.922;5.346;2022-12-19T05:11:02;8.20;99.90
25914;DHT22;13718;50.922;5.346;2022-12-19T05:13:29;8.10;99.90
25914;DHT22;13718;50.922;5.346;2022-12-19T05:15:56;8.20;99.90
25914;DHT22;13718;50.922;5.346;2022-12-19T05:18:22;8.30;99.90
25914;DHT22;13718;50.922;5.346;2022-12-19T05:20:48;8.30;99.90
25914;DHT22;13718;50.922;5.346;2022-12-19T05:23:13;8.30;99.90
25914;DHT22;13718;50.922;5.346;2022-12-19T05:25:39;8.40;99.90
25914;DHT22;13718;50.922;5.346;2022-12-19T05:28:04;8.50;99.90
25914;DHT22;13718;50.922;5.346;2022-12-19T05:30:30;8.40;99.90
25914;DHT22;13718;50.922;5.346;2022-12-19T05:32:55;8.40;99.90
25914;DHT22;13718;50.922;5.346;2022-12-19T05:35:21;8.40;99.90
25914;DHT22;13718;50.922;5.346;2022-12-19T05:37:47;8.40;99.90
25914;DHT22;13718;50.922;5.346;2022-12-19T05:40:12;8.30;99.90
25914;DHT22;13718;50.922;5.346;2022-12-19T05:42:38;8.30;99.90
25914;DHT22;13718;50.922;5.346;2022-12-19T05:45:04;8.30;99.90
25914;DHT22;13718;50.922;5.346;2022-12-19T05:47:30;8.30;99.90
25914;DHT22;13718;50.922;5.346;2022-12-19T05:49:55;8.40;99.90
25914;DHT22;13718;50.922;5.346;2022-12-19T05:52:21;8.50;99.90
25914;DHT22;13718;50.922;5.346;2022-12-19T05:54:46;8.50;99.90
25914;DHT22;13718;50.922;5.346;2022-12-19T05:57:12;8.50;99.90
25914;DHT22;13718;50.922;5.346;2022-12-19T05:59:37;8.40;99.90
25914;DHT22;13718;50.922;5.346;2022-12-19T06:02:03;8.40;99.90
25914;DHT22;13718;50.922;5.346;2022-12-19T06:04:29;8.50;99.90
25914;DHT22;13718;50.922;5.346;2022-12-19T06:06:54;8.50;99.90
25914;DHT22;13718;50.922;5.346;2022-12-19T06:09:20;8.50;99.90
25914;DHT22;13718;50.922;5.346;2022-12-19T06:11:46;8.50;99.90
25914;DHT22;13718;50.922;5.346;2022-12-19T06:14:11;8.60;99.90
25914;DHT22;13718;50.922;5.346;2022-12-19T06:16:37;8.70;99.90
25914;DHT22;13718;50.922;5.346;2022-12-19T06:19:02;8.70;99.90
25914;DHT22;13718;50.922;5.346;2022-12-19T06:21:28;8.60;99.90
25914;DHT22;13718;50.922;5.346;2022-12-19T06:23:54;8.60;99.90
25914;DHT22;13718;50.922;5.346;2022-12-19T06:26:20;8.50;99.90
25914;DHT22;13718;50.922;5.346;2022-12-19T06:28:50;8.60;99.90
25914;DHT22;13718;50.922;5.346;2022-12-19T06:31:18;8.50;99.90
25914;DHT22;13718;50.922;5.346;2022-12-19T06:33:44;8.50;99.90
25914;DHT22;13718;50.922;5.346;2022-12-19T06:36:19;8.50;99.90
25914;DHT22;13718;50.922;5.346;2022-12-19T06:38:46;8.60;99.90
25914;DHT22;13718;50.922;5.346;2022-12-19T06:41:11;8.70;99.90
25914;DHT22;13718;50.922;5.346;2022-12-19T06:43:59;8.80;99.90
25914;DHT22;13718;50.922;5.346;2022-12-19T06:46:26;8.80;99.90
25914;DHT22;13718;50.922;5.346;2022-12-19T06:48:52;8.80;99.90
25914;DHT22;13718;50.922;5.346;2022-12-19T06:51:17;8.90;99.90
25914;DHT22;13718;50.922;5.346;2022-12-19T06:53:43;8.80;99.90
25914;DHT22;13718;50.922;5.346;2022-12-19T06:56:12;8.80;99.90
25914;DHT22;13718;50.922;5.346;2022-12-19T06:58:38;8.90;99.90
25914;DHT22;13718;50.922;5.346;2022-12-19T07:01:04;8.90;99.90
25914;DHT22;13718;50.922;5.346;2022-12-19T07:03:33;8.90;99.90
25914;DHT22;13718;50.922;5.346;2022-12-19T07:06:00;8.80;99.90
25914;DHT22;13718;50.922;5.346;2022-12-19T07:08:26;8.70;99.90
25914;DHT22;13718;50.922;5.346;2022-12-19T07:10:52;8.60;99.90
25914;DHT22;13718;50.922;5.346;2022-12-19T07:13:18;8.70;99.90
25914;DHT22;13718;50.922;5.346;2022-12-19T07:15:43;8.90;99.90
25914;DHT22;13718;50.922;5.346;2022-12-19T07:18:09;8.80;99.90
25914;DHT22;13718;50.922;5.346;2022-12-19T07:20:36;8.80;99.90
25914;DHT22;13718;50.922;5.346;2022-12-19T07:23:03;8.70;99.90
25914;DHT22;13718;50.922;5.346;2022-12-19T07:25:30;8.70;99.90
25914;DHT22;13718;50.922;5.346;2022-12-19T07:27:56;8.80;99.90
25914;DHT22;13718;50.922;5.346;2022-12-19T07:30:22;8.70;99.90
25914;DHT22;13718;50.922;5.346;2022-12-19T07:32:47;8.70;99.90
25914;DHT22;13718;50.922;5.346;2022-12-19T07:35:13;8.90;99.90
25914;DHT22;13718;50.922;5.346;2022-12-19T07:37:39;9.00;99.90
25914;DHT22;13718;50.922;5.346;2022-12-19T07:40:05;9.00;99.90
25914;DHT22;13718;50.922;5.346;2022-12-19T07:42:30;9.00;99.90
25914;DHT22;13718;50.922;5.346;2022-12-19T07:44:56;9.00;99.90
25914;DHT22;13718;50.922;5.346;2022-12-19T07:47:22;8.90;99.90
25914;DHT22;13718;50.922;5.346;2022-12-19T07:49:47;9.00;99.90
25914;DHT22;13718;50.922;5.346;2022-12-19T07:52:13;9.00;99.90
25914;DHT22;13718;50.922;5.346;2022-12-19T07:54:38;9.10;99.90
25914;DHT22;13718;50.922;5.346;2022-12-19T07:57:05;9.10;99.90
25914;DHT22;13718;50.922;5.346;2022-12-19T07:59:30;9.00;99.90
25914;DHT22;13718;50.922;5.346;2022-12-19T08:01:56;9.10;99.90
25914;DHT22;13718;50.922;5.346;2022-12-19T08:04:22;9.10;99.90
25914;DHT22;13718;50.922;5.346;2022-12-19T08:06:47;9.00;99.90
25914;DHT22;13718;50.922;5.346;2022-12-19T08:09:13;9.00;99.90
25914;DHT22;13718;50.922;5.346;2022-12-19T08:11:39;9.00;99.90
25914;DHT22;13718;50.922;5.346;2022-12-19T08:14:04;9.10;99.90
25914;DHT22;13718;50.922;5.346;2022-12-19T08:16:30;9.20;99.90
25914;DHT22;13718;50.922;5.346;2022-12-19T08:18:56;9.20;99.90
25914;DHT22;13718;50.922;5.346;2022-12-19T08:21:23;9.20;99.90
25914;DHT22;13718;50.922;5.346;2022-12-19T08:23:48;9.40;99.90
25914;DHT22;13718;50.922;5.346;2022-12-19T08:26:16;9.50;99.90
25914;DHT22;13718;50.922;5.346;2022-12-19T08:28:42;9.40;99.90
25914;DHT22;13718;50.922;5.346;2022-12-19T08:31:10;9.30;99.90
25914;DHT22;13718;50.922;5.346;2022-12-19T08:33:37;9.20;99.90
25914;DHT22;13718;50.922;5.346;2022-12-19T08:36:10;9.20;99.90
25914;DHT22;13718;50.922;5.346;2022-12-19T08:38:37;9.20;99.90
25914;DHT22;13718;50.922;5.346;2022-12-19T08:41:04;9.20;99.90
25914;DHT22;13718;50.922;5.346;2022-12-19T08:43:30;9.10;99.90
25914;DHT22;13718;50.922;5.346;2022-12-19T08:45:56;9.20;99.90
25914;DHT22;13718;50.922;5.346;2022-12-19T08:48:22;9.20;99.90
25914;DHT22;13718;50.922;5.346;2022-12-19T08:50:53;9.40;99.90
25914;DHT22;13718;50.922;5.346;2022-12-19T08:53:19;9.50;99.90
25914;DHT22;13718;50.922;5.346;2022-12-19T08:55:45;9.60;99.90
25914;DHT22;13718;50.922;5.346;2022-12-19T08:58:11;9.50;99.90
25914;DHT22;13718;50.922;5.346;2022-12-19T09:00:37;9.50;99.90
25914;DHT22;13718;50.922;5.346;2022-12-19T09:03:03;9.50;99.90
25914;DHT22;13718;50.922;5.346;2022-12-19T09:05:29;9.40;99.90
25914;DHT22;13718;50.922;5.346;2022-12-19T09:07:55;9.60;99.90
25914;DHT22;13718;50.922;5.346;2022-12-19T09:10:20;9.70;99.90
25914;DHT22;13718;50.922;5.346;2022-12-19T09:12:46;9.70;99.90
25914;DHT22;13718;50.922;5.346;2022-12-19T09:15:12;9.70;99.90
25914;DHT22;13718;50.922;5.346;2022-12-19T09:17:37;9.80;99.90
25914;DHT22;13718;50.922;5.346;2022-12-19T09:20:03;9.70;99.90
25914;DHT22;13718;50.922;5.346;2022-12-19T09:22:29;9.80;99.90
25914;DHT22;13718;50.922;5.346;2022-12-19T09:24:55;9.80;99.90
25914;DHT22;13718;50.922;5.346;2022-12-19T09:27:20;9.90;99.90
25914;DHT22;13718;50.922;5.346;2022-12-19T09:29:46;10.00;99.90
25914;DHT22;13718;50.922;5.346;2022-12-19T09:32:11;9.80;99.90
25914;DHT22;13718;50.922;5.346;2022-12-19T09:34:37;9.80;99.90
25914;DHT22;13718;50.922;5.346;2022-12-19T09:37:03;10.00;99.90
25914;DHT22;13718;50.922;5.346;2022-12-19T09:39:29;10.00;99.90
25914;DHT22;13718;50.922;5.346;2022-12-19T09:47:13;10.10;99.90
25914;DHT22;13718;50.922;5.346;2022-12-19T09:49:42;10.10;99.90
25914;DHT22;13718;50.922;5.346;2022-12-19T09:57:24;10.10;99.90
25914;DHT22;13718;50.922;5.346;2022-12-19T09:59:56;10.00;99.90
25914;DHT22;13718;50.922;5.346;2022-12-19T10:02:39;10.00;99.90
25914;DHT22;13718;50.922;5.346;2022-12-19T10:05:19;10.20;99.90
25914;DHT22;13718;50.922;5.346;2022-12-19T10:07:46;10.30;99.90
25914;DHT22;13718;50.922;5.346;2022-12-19T10:10:14;10.30;99.90
25914;DHT22;13718;50.922;5.346;2022-12-19T10:21:26;10.40;99.90
25914;DHT22;13718;50.922;5.346;2022-12-19T10:26:25;10.30;99.90
25914;DHT22;13718;50.922;5.346;2022-12-19T10:29:09;10.30;99.90
25914;DHT22;13718;50.922;5.346;2022-12-19T10:31:43;10.30;99.90
25914;DHT22;13718;50.922;5.346;2022-12-19T10:34:20;10.40;99.90
25914;DHT22;13718;50.922;5.346;2022-12-19T10:36:57;10.40;99.90
25914;DHT22;13718;50.922;5.346;2022-12-19T10:39:32;10.30;99.90
25914;DHT22;13718;50.922;5.346;2022-12-19T10:42:12;10.40;99.90
25914;DHT22;13718;50.922;5.346;2022-12-19T10:44:39;10.40;99.90
25914;DHT22;13718;50.922;5.346;2022-12-19T10:47:12;10.40;99.90
25914;DHT22;13718;50.922;5.346;2022-12-19T10:49:39;10.60;99.90
25914;DHT22;13718;50.922;5.346;2022-12-19T10:52:06;10.50;99.90
25914;DHT22;13718;50.922;5.346;2022-12-19T11:02:43;10.80;99.90
25914;DHT22;13718;50.922;5.346;2022-12-19T11:05:24;10.80;99.90
25914;DHT22;13718;50.922;5.346;2022-12-19T11:13:40;10.70;99.90
25914;DHT22;13718;50.922;5.346;2022-12-19T11:16:07;10.60;99.90
25914;DHT22;13718;50.922;5.346;2022-12-19T11:21:27;10.70;99.90
25914;DHT22;13718;50.922;5.346;2022-12-19T11:26:44;11.00;99.90
25914;DHT22;13718;50.922;5.346;2022-12-19T11:32:00;11.10;99.90
25914;DHT22;13718;50.922;5.346;2022-12-19T11:34:29;11.00;99.90
25914;DHT22;13718;50.922;5.346;2022-12-19T11:36:58;11.00;99.90
25914;DHT22;13718;50.922;5.346;2022-12-19T11:39:35;10.90;99.90
25914;DHT22;13718;50.922;5.346;2022-12-19T11:45:17;11.10;99.90
25914;DHT22;13718;50.922;5.346;2022-12-19T11:50:31;11.20;99.90
25914;DHT22;13718;50.922;5.346;2022-12-19T11:53:19;11.30;99.90
25914;DHT22;13718;50.922;5.346;2022-12-19T11:56:04;11.50;99.90
25914;DHT22;13718;50.922;5.346;2022-12-19T11:58:32;11.70;99.90
25914;DHT22;13718;50.922;5.346;2022-12-19T12:01:28;11.80;99.90
25914;DHT22;13718;50.922;5.346;2022-12-19T12:06:38;11.90;99.90
25914;DHT22;13718;50.922;5.346;2022-12-19T12:09:53;11.90;99.90
25914;DHT22;13718;50.922;5.346;2022-12-19T12:11:56;12.00;99.90
25914;DHT22;13718;50.922;5.346;2022-12-19T12:22:59;12.40;99.90
25914;DHT22;13718;50.922;5.346;2022-12-19T12:28:54;12.60;99.90
25914;DHT22;13718;50.922;5.346;2022-12-19T12:34:19;12.50;99.90
25914;DHT22;13718;50.922;5.346;2022-12-19T12:39:23;12.70;99.90
25914;DHT22;13718;50.922;5.346;2022-12-19T12:44:37;12.90;99.90
25914;DHT22;13718;50.922;5.346;2022-12-19T12:47:19;12.90;99.90
25914;DHT22;13718;50.922;5.346;2022-12-19T12:49:50;12.90;99.90
25914;DHT22;13718;50.922;5.346;2022-12-19T12:52:31;12.90;99.90
25914;DHT22;13718;50.922;5.346;2022-12-19T12:54:57;12.90;99.90
25914;DHT22;13718;50.922;5.346;2022-12-19T13:00:25;13.00;99.90
25914;DHT22;13718;50.922;5.346;2022-12-19T13:03:02;13.10;99.90
25914;DHT22;13718;50.922;5.346;2022-12-19T13:05:39;13.10;99.90
25914;DHT22;13718;50.922;5.346;2022-12-19T13:08:37;13.00;99.90
25914;DHT22;13718;50.922;5.346;2022-12-19T13:11:04;13.10;99.90
25914;DHT22;13718;50.922;5.346;2022-12-19T13:19:16;13.00;99.90
25914;DHT22;13718;50.922;5.346;2022-12-19T13:24:43;12.80;99.90
25914;DHT22;13718;50.922;5.346;2022-12-19T13:43:20;12.70;99.90
25914;DHT22;13718;50.922;5.346;2022-12-19T13:46:17;12.50;99.90
25914;DHT22;13718;50.922;5.346;2022-12-19T13:48:46;12.50;99.90
25914;DHT22;13718;50.922;5.346;2022-12-19T13:51:13;12.40;99.90
25914;DHT22;13718;50.922;5.346;2022-12-19T13:53:40;12.60;99.90
25914;DHT22;13718;50.922;5.346;2022-12-19T13:56:15;12.60;99.90
25914;DHT22;13718;50.922;5.346;2022-12-19T13:58:53;12.50;99.90
25914;DHT22;13718;50.922;5.346;2022-12-19T14:01:31;12.60;99.90
25914;DHT22;13718;50.922;5.346;2022-12-19T14:04:03;12.70;99.90
25914;DHT22;13718;50.922;5.346;2022-12-19T14:06:30;12.60;99.90
25914;DHT22;13718;50.922;5.346;2022-12-19T14:09:07;12.70;99.90
25914;DHT22;13718;50.922;5.346;2022-12-19T14:11:41;12.60;99.90
25914;DHT22;13718;50.922;5.346;2022-12-19T14:14:14;12.70;99.90
25914;DHT22;13718;50.922;5.346;2022-12-19T14:17:10;12.70;99.90
25914;DHT22;13718;50.922;5.346;2022-12-19T14:19:39;12.80;99.90
25914;DHT22;13718;50.922;5.346;2022-12-19T14:22:13;12.70;99.90
25914;DHT22;13718;50.922;5.346;2022-12-19T14:24:56;12.70;99.90
25914;DHT22;13718;50.922;5.346;2022-12-19T14:27:45;12.60;99.90
25914;DHT22;13718;50.922;5.346;2022-12-19T14:30:22;12.60;99.90
25914;DHT22;13718;50.922;5.346;2022-12-19T14:32:50;12.70;99.90
25914;DHT22;13718;50.922;5.346;2022-12-19T14:35:21;12.70;99.90
25914;DHT22;13718;50.922;5.346;2022-12-19T14:37:57;12.60;99.90
25914;DHT22;13718;50.922;5.346;2022-12-19T14:40:26;12.60;99.90
25914;DHT22;13718;50.922;5.346;2022-12-19T14:43:00;12.50;99.90
25914;DHT22;13718;50.922;5.346;2022-12-19T14:45:45;12.40;99.90
25914;DHT22;13718;50.922;5.346;2022-12-19T14:48:34;12.40;99.90
25914;DHT22;13718;50.922;5.346;2022-12-19T14:53:33;12.30;99.90
25914;DHT22;13718;50.922;5.346;2022-12-19T14:56:15;12.30;99.90
25914;DHT22;13718;50.922;5.346;2022-12-19T14:58:52;12.20;99.90
25914;DHT22;13718;50.922;5.346;2022-12-19T15:01:27;12.20;99.90
25914;DHT22;13718;50.922;5.346;2022-12-19T15:04:03;12.10;99.90
25914;DHT22;13718;50.922;5.346;2022-12-19T15:06:30;12.10;99.90
25914;DHT22;13718;50.922;5.346;2022-12-19T15:09:04;12.20;99.90
25914;DHT22;13718;50.922;5.346;2022-12-19T15:11:43;12.20;99.90
25914;DHT22;13718;50.922;5.346;2022-12-19T15:14:31;12.20;99.90
25914;DHT22;13718;50.922;5.346;2022-12-19T15:17:17;12.00;99.90
25914;DHT22;13718;50.922;5.346;2022-12-19T15:19:44;12.00;99.90
25914;DHT22;13718;50.922;5.346;2022-12-19T15:22:09;12.00;99.90
25914;DHT22;13718;50.922;5.346;2022-12-19T15:24:35;12.00;99.90
25914;DHT22;13718;50.922;5.346;2022-12-19T15:27:00;12.00;99.90
25914;DHT22;13718;50.922;5.346;2022-12-19T15:29:26;12.10;99.90
25914;DHT22;13718;50.922;5.346;2022-12-19T15:31:52;12.00;99.90
25914;DHT22;13718;50.922;5.346;2022-12-19T15:34:29;11.80;99.90
25914;DHT22;13718;50.922;5.346;2022-12-19T15:36:56;11.80;99.90
25914;DHT22;13718;50.922;5.346;2022-12-19T15:39:22;11.70;99.90
25914;DHT22;13718;50.922;5.346;2022-12-19T15:41:51;11.80;99.90
25914;DHT22;13718;50.922;5.346;2022-12-19T15:44:31;11.70;99.90
25914;DHT22;13718;50.922;5.346;2022-12-19T15:46:58;11.60;99.90
25914;DHT22;13718;50.922;5.346;2022-12-19T15:49:24;11.60;99.90
25914;DHT22;13718;50.922;5.346;2022-12-19T15:51:50;11.40;99.90
25914;DHT22;13718;50.922;5.346;2022-12-19T15:54:17;11.60;99.90
25914;DHT22;13718;50.922;5.346;2022-12-19T15:56:45;11.50;99.90
25914;DHT22;13718;50.922;5.346;2022-12-19T15:59:33;11.40;99.90
25914;DHT22;13718;50.922;5.346;2022-12-19T16:02:00;11.50;99.90
25914;DHT22;13718;50.922;5.346;2022-12-19T16:04:26;11.60;99.90
25914;DHT22;13718;50.922;5.346;2022-12-19T16:06:52;11.70;99.90
25914;DHT22;13718;50.922;5.346;2022-12-19T16:09:23;11.80;99.90
25914;DHT22;13718;50.922;5.346;2022-12-19T16:11:51;11.70;99.90
25914;DHT22;13718;50.922;5.346;2022-12-19T16:14:18;11.70;99.90
25914;DHT22;13718;50.922;5.346;2022-12-19T16:16:49;11.70;99.90
25914;DHT22;13718;50.922;5.346;2022-12-19T16:19:27;11.60;99.90
25914;DHT22;13718;50.922;5.346;2022-12-19T16:21:54;11.70;99.90
25914;DHT22;13718;50.922;5.346;2022-12-19T16:24:20;11.70;99.90
25914;DHT22;13718;50.922;5.346;2022-12-19T16:26:55;11.70;99.90
25914;DHT22;13718;50.922;5.346;2022-12-19T16:29:29;11.70;99.90
25914;DHT22;13718;50.922;5.346;2022-12-19T16:31:57;11.60;99.90
25914;DHT22;13718;50.922;5.346;2022-12-19T16:34:26;11.60;99.90
25914;DHT22;13718;50.922;5.346;2022-12-19T16:36:51;11.50;99.90
25914;DHT22;13718;50.922;5.346;2022-12-19T16:39:17;11.60;99.90
25914;DHT22;13718;50.922;5.346;2022-12-19T16:41:43;11.70;99.90
25914;DHT22;13718;50.922;5.346;2022-12-19T16:44:18;11.60;99.90
25914;DHT22;13718;50.922;5.346;2022-12-19T16:46:45;11.60;99.90
25914;DHT22;13718;50.922;5.346;2022-12-19T16:49:21;11.70;99.90
25914;DHT22;13718;50.922;5.346;2022-12-19T16:51:50;11.80;99.90
25914;DHT22;13718;50.922;5.346;2022-12-19T16:54:16;12.00;99.90
25914;DHT22;13718;50.922;5.346;2022-12-19T16:56:46;12.20;99.90
25914;DHT22;13718;50.922;5.346;2022-12-19T16:59:23;12.00;99.90
25914;DHT22;13718;50.922;5.346;2022-12-19T17:01:50;12.00;99.90
25914;DHT22;13718;50.922;5.346;2022-12-19T17:04:22;12.10;99.90
25914;DHT22;13718;50.922;5.346;2022-12-19T17:06:49;12.10;99.90
25914;DHT22;13718;50.922;5.346;2022-12-19T17:09:17;12.20;99.90
25914;DHT22;13718;50.922;5.346;2022-12-19T17:11:45;12.20;99.90
25914;DHT22;13718;50.922;5.346;2022-12-19T17:14:20;12.10;99.90
25914;DHT22;13718;50.922;5.346;2022-12-19T17:16:46;12.10;99.90
25914;DHT22;13718;50.922;5.346;2022-12-19T17:19:21;12.10;99.90
25914;DHT22;13718;50.922;5.346;2022-12-19T17:21:48;12.10;99.90
25914;DHT22;13718;50.922;5.346;2022-12-19T17:24:14;12.20;99.90
25914;DHT22;13718;50.922;5.346;2022-12-19T17:26:42;12.10;99.90
25914;DHT22;13718;50.922;5.346;2022-12-19T17:29:08;12.10;99.90
25914;DHT22;13718;50.922;5.346;2022-12-19T17:31:34;12.10;99.90
25914;DHT22;13718;50.922;5.346;2022-12-19T17:34:27;12.00;99.90
25914;DHT22;13718;50.922;5.346;2022-12-19T17:36:51;12.10;99.90
25914;DHT22;13718;50.922;5.346;2022-12-19T17:41:42;12.30;99.90
25914;DHT22;13718;50.922;5.346;2022-12-19T17:44:07;12.30;99.90
25914;DHT22;13718;50.922;5.346;2022-12-19T17:46:35;12.30;99.90
25914;DHT22;13718;50.922;5.346;2022-12-19T17:49:01;12.30;99.90
25914;DHT22;13718;50.922;5.346;2022-12-19T17:51:26;12.30;99.90
25914;DHT22;13718;50.922;5.346;2022-12-19T17:53:52;12.40;99.90
25914;DHT22;13718;50.922;5.346;2022-12-19T17:56:18;12.20;99.90
25914;DHT22;13718;50.922;5.346;2022-12-19T17:58:45;12.20;99.90
25914;DHT22;13718;50.922;5.346;2022-12-19T18:01:19;12.20;99.90
25914;DHT22;13718;50.922;5.346;2022-12-19T18:03:45;12.20;99.90
25914;DHT22;13718;50.922;5.346;2022-12-19T18:06:11;12.40;99.90
25914;DHT22;13718;50.922;5.346;2022-12-19T18:08:37;12.30;99.90
25914;DHT22;13718;50.922;5.346;2022-12-19T18:11:04;12.40;99.90